sensor_id;sensor_type;location;lat;lon;timestamp;P1;durP1;ratioP1;P2;durP2;ratioP2
29092;SDS011;16167;48.768;14.984;2023-03-31T00:00:31;7.20;;;4.28;;
29092;SDS011;16167;48.768;14.984;2023-03-31T00:02:59;11.32;;;4.35;;
29092;SDS011;16167;48.768;14.984;2023-03-31T00:05:28;9.48;;;4.43;;
29092;SDS011;16167;48.768;14.984;2023-03-31T00:08:00;6.90;;;3.90;;
29092;SDS011;16167;48.768;14.984;2023-03-31T00:10:28;4.35;;;3.42;;
29092;SDS011;16167;48.768;14.984;2023-03-31T00:12:59;10.70;;;4.78;;
29092;SDS011;16167;48.768;14.984;2023-03-31T00:15:28;4.88;;;3.47;;
29092;SDS011;16167;48.768;14.984;2023-03-31T00:17:56;8.45;;;4.00;;
29092;SDS011;16167;48.768;14.984;2023-03-31T00:22:53;8.27;;;3.88;;
29092;SDS011;16167;48.768;14.984;2023-03-31T00:25:24;8.07;;;4.13;;
29092;SDS011;16167;48.768;14.984;2023-03-31T00:27:52;7.28;;;4.63;;
29092;SDS011;16167;48.768;14.984;2023-03-31T00:30:20;11.05;;;5.95;;
29092;SDS011;16167;48.768;14.984;2023-03-31T00:32:49;12.57;;;5.10;;
29092;SDS011;16167;48.768;14.984;2023-03-31T00:35:17;9.02;;;5.22;;
29092;SDS011;16167;48.768;14.984;2023-03-31T00:37:45;8.98;;;4.88;;
29092;SDS011;16167;48.768;14.984;2023-03-31T00:40:13;13.38;;;5.57;;
29092;SDS011;16167;48.768;14.984;2023-03-31T00:42:43;11.25;;;5.75;;
29092;SDS011;16167;48.768;14.984;2023-03-31T00:45:20;11.18;;;6.15;;
29092;SDS011;16167;48.768;14.984;2023-03-31T00:47:53;12.63;;;6.40;;
29092;SDS011;16167;48.768;14.984;2023-03-31T00:50:26;11.23;;;5.40;;
29092;SDS011;16167;48.768;14.984;2023-03-31T00:52:59;13.02;;;5.70;;
29092;SDS011;16167;48.768;14.984;2023-03-31T00:55:33;12.77;;;6.13;;
29092;SDS011;16167;48.768;14.984;2023-03-31T00:58:07;9.73;;;5.68;;
29092;SDS011;16167;48.768;14.984;2023-03-31T01:00:39;11.63;;;5.60;;
29092;SDS011;16167;48.768;14.984;2023-03-31T01:03:10;11.35;;;5.40;;
29092;SDS011;16167;48.768;14.984;2023-03-31T01:05:41;11.18;;;5.82;;
29092;SDS011;16167;48.768;14.984;2023-03-31T01:08:11;9.60;;;5.35;;
29092;SDS011;16167;48.768;14.984;2023-03-31T01:10:44;9.32;;;5.10;;
29092;SDS011;16167;48.768;14.984;2023-03-31T01:13:18;7.63;;;5.00;;
29092;SDS011;16167;48.768;14.984;2023-03-31T01:15:47;8.98;;;5.55;;
29092;SDS011;16167;48.768;14.984;2023-03-31T01:18:16;11.75;;;5.47;;
29092;SDS011;16167;48.768;14.984;2023-03-31T01:21:00;10.52;;;6.20;;
29092;SDS011;16167;48.768;14.984;2023-03-31T01:27:00;13.35;;;5.20;;
29092;SDS011;16167;48.768;14.984;2023-03-31T01:30:07;11.93;;;6.00;;
29092;SDS011;16167;48.768;14.984;2023-03-31T01:36:27;10.18;;;5.70;;
29092;SDS011;16167;48.768;14.984;2023-03-31T01:42:23;11.30;;;5.95;;
29092;SDS011;16167;48.768;14.984;2023-03-31T01:44:57;11.95;;;6.60;;
29092;SDS011;16167;48.768;14.984;2023-03-31T01:47:39;12.35;;;6.47;;
29092;SDS011;16167;48.768;14.984;2023-03-31T01:50:14;12.63;;;6.68;;
29092;SDS011;16167;48.768;14.984;2023-03-31T01:52:48;10.32;;;6.05;;
29092;SDS011;16167;48.768;14.984;2023-03-31T01:55:23;10.70;;;5.97;;
29092;SDS011;16167;48.768;14.984;2023-03-31T01:57:56;14.85;;;7.03;;
29092;SDS011;16167;48.768;14.984;2023-03-31T02:00:30;9.48;;;6.53;;
29092;SDS011;16167;48.768;14.984;2023-03-31T02:03:03;14.57;;;7.15;;
29092;SDS011;16167;48.768;14.984;2023-03-31T02:05:36;9.85;;;6.55;;
29092;SDS011;16167;48.768;14.984;2023-03-31T02:08:09;13.60;;;7.28;;
29092;SDS011;16167;48.768;14.984;2023-03-31T02:10:41;11.32;;;7.60;;
29092;SDS011;16167;48.768;14.984;2023-03-31T02:13:12;15.38;;;8.63;;
29092;SDS011;16167;48.768;14.984;2023-03-31T02:15:44;20.67;;;10.90;;
29092;SDS011;16167;48.768;14.984;2023-03-31T02:18:15;17.05;;;9.90;;
29092;SDS011;16167;48.768;14.984;2023-03-31T02:20:46;22.20;;;10.13;;
29092;SDS011;16167;48.768;14.984;2023-03-31T02:23:19;17.80;;;10.05;;
29092;SDS011;16167;48.768;14.984;2023-03-31T02:25:56;12.20;;;9.02;;
29092;SDS011;16167;48.768;14.984;2023-03-31T02:28:29;17.75;;;9.85;;
29092;SDS011;16167;48.768;14.984;2023-03-31T02:31:03;21.25;;;10.73;;
29092;SDS011;16167;48.768;14.984;2023-03-31T02:33:38;15.27;;;8.98;;
29092;SDS011;16167;48.768;14.984;2023-03-31T02:36:06;16.35;;;9.43;;
29092;SDS011;16167;48.768;14.984;2023-03-31T02:38:36;14.95;;;8.95;;
29092;SDS011;16167;48.768;14.984;2023-03-31T02:41:08;12.60;;;9.13;;
29092;SDS011;16167;48.768;14.984;2023-03-31T02:43:38;16.95;;;9.32;;
29092;SDS011;16167;48.768;14.984;2023-03-31T02:48:36;15.90;;;9.40;;
29092;SDS011;16167;48.768;14.984;2023-03-31T02:54:18;16.27;;;9.88;;
29092;SDS011;16167;48.768;14.984;2023-03-31T02:57:03;16.10;;;10.20;;
29092;SDS011;16167;48.768;14.984;2023-03-31T02:59:53;18.50;;;10.40;;
29092;SDS011;16167;48.768;14.984;2023-03-31T03:02:33;19.08;;;10.25;;
29092;SDS011;16167;48.768;14.984;2023-03-31T03:05:17;14.15;;;9.82;;
29092;SDS011;16167;48.768;14.984;2023-03-31T03:07:51;14.38;;;9.70;;
29092;SDS011;16167;48.768;14.984;2023-03-31T03:10:29;16.27;;;9.88;;
29092;SDS011;16167;48.768;14.984;2023-03-31T03:13:05;20.15;;;10.55;;
29092;SDS011;16167;48.768;14.984;2023-03-31T03:15:43;17.20;;;10.85;;
29092;SDS011;16167;48.768;14.984;2023-03-31T03:18:13;18.75;;;8.80;;
29092;SDS011;16167;48.768;14.984;2023-03-31T03:20:42;14.50;;;7.50;;
29092;SDS011;16167;48.768;14.984;2023-03-31T03:23:13;12.05;;;7.40;;
29092;SDS011;16167;48.768;14.984;2023-03-31T03:25:42;13.50;;;7.95;;
29092;SDS011;16167;48.768;14.984;2023-03-31T03:28:11;11.98;;;6.70;;
29092;SDS011;16167;48.768;14.984;2023-03-31T03:30:39;17.95;;;7.38;;
29092;SDS011;16167;48.768;14.984;2023-03-31T03:33:08;11.77;;;7.35;;
29092;SDS011;16167;48.768;14.984;2023-03-31T03:35:42;11.13;;;6.68;;
29092;SDS011;16167;48.768;14.984;2023-03-31T03:38:10;13.18;;;7.30;;
29092;SDS011;16167;48.768;14.984;2023-03-31T03:40:39;11.45;;;6.45;;
29092;SDS011;16167;48.768;14.984;2023-03-31T03:43:07;12.23;;;7.70;;
29092;SDS011;16167;48.768;14.984;2023-03-31T03:45:35;11.40;;;7.25;;
29092;SDS011;16167;48.768;14.984;2023-03-31T03:48:03;12.93;;;6.80;;
29092;SDS011;16167;48.768;14.984;2023-03-31T03:53:05;12.32;;;6.18;;
29092;SDS011;16167;48.768;14.984;2023-03-31T03:55:33;7.72;;;5.18;;
29092;SDS011;16167;48.768;14.984;2023-03-31T03:58:01;11.68;;;6.05;;
29092;SDS011;16167;48.768;14.984;2023-03-31T04:00:29;11.70;;;6.50;;
29092;SDS011;16167;48.768;14.984;2023-03-31T04:02:58;9.52;;;5.82;;
29092;SDS011;16167;48.768;14.984;2023-03-31T04:05:27;9.88;;;5.78;;
29092;SDS011;16167;48.768;14.984;2023-03-31T04:07:56;16.70;;;5.35;;
29092;SDS011;16167;48.768;14.984;2023-03-31T04:10:24;13.07;;;5.82;;
29092;SDS011;16167;48.768;14.984;2023-03-31T04:12:52;11.73;;;5.68;;
29092;SDS011;16167;48.768;14.984;2023-03-31T04:15:20;8.07;;;5.05;;
29092;SDS011;16167;48.768;14.984;2023-03-31T04:17:49;9.80;;;6.10;;
29092;SDS011;16167;48.768;14.984;2023-03-31T04:20:20;10.30;;;5.55;;
29092;SDS011;16167;48.768;14.984;2023-03-31T04:22:53;11.88;;;5.47;;
29092;SDS011;16167;48.768;14.984;2023-03-31T04:25:22;9.48;;;6.65;;
29092;SDS011;16167;48.768;14.984;2023-03-31T04:27:51;11.23;;;6.78;;
29092;SDS011;16167;48.768;14.984;2023-03-31T04:30:21;11.70;;;7.13;;
29092;SDS011;16167;48.768;14.984;2023-03-31T04:32:56;12.02;;;6.10;;
29092;SDS011;16167;48.768;14.984;2023-03-31T04:35:26;8.57;;;6.03;;
29092;SDS011;16167;48.768;14.984;2023-03-31T04:38:08;12.02;;;6.35;;
29092;SDS011;16167;48.768;14.984;2023-03-31T04:40:37;11.70;;;6.32;;
29092;SDS011;16167;48.768;14.984;2023-03-31T04:43:06;17.75;;;11.25;;
29092;SDS011;16167;48.768;14.984;2023-03-31T04:45:34;8.32;;;6.38;;
29092;SDS011;16167;48.768;14.984;2023-03-31T04:48:03;9.65;;;5.20;;
29092;SDS011;16167;48.768;14.984;2023-03-31T04:50:31;9.00;;;5.13;;
29092;SDS011;16167;48.768;14.984;2023-03-31T04:52:59;12.55;;;5.35;;
29092;SDS011;16167;48.768;14.984;2023-03-31T04:55:27;10.88;;;4.97;;
29092;SDS011;16167;48.768;14.984;2023-03-31T04:57:57;10.93;;;4.88;;
29092;SDS011;16167;48.768;14.984;2023-03-31T05:00:25;7.90;;;6.30;;
29092;SDS011;16167;48.768;14.984;2023-03-31T05:02:54;12.53;;;6.10;;
29092;SDS011;16167;48.768;14.984;2023-03-31T05:05:22;21.67;;;7.57;;
29092;SDS011;16167;48.768;14.984;2023-03-31T05:07:50;14.77;;;7.40;;
29092;SDS011;16167;48.768;14.984;2023-03-31T05:10:18;13.57;;;7.03;;
29092;SDS011;16167;48.768;14.984;2023-03-31T05:12:47;13.15;;;6.03;;
29092;SDS011;16167;48.768;14.984;2023-03-31T05:15:16;9.88;;;4.97;;
29092;SDS011;16167;48.768;14.984;2023-03-31T05:17:45;10.88;;;4.85;;
29092;SDS011;16167;48.768;14.984;2023-03-31T05:20:13;10.80;;;5.15;;
29092;SDS011;16167;48.768;14.984;2023-03-31T05:22:41;12.10;;;4.25;;
29092;SDS011;16167;48.768;14.984;2023-03-31T05:25:10;12.90;;;4.40;;
29092;SDS011;16167;48.768;14.984;2023-03-31T05:27:40;7.47;;;4.10;;
29092;SDS011;16167;48.768;14.984;2023-03-31T05:30:08;7.47;;;3.75;;
29092;SDS011;16167;48.768;14.984;2023-03-31T05:32:38;7.57;;;3.45;;
29092;SDS011;16167;48.768;14.984;2023-03-31T05:37:34;11.35;;;4.43;;
29092;SDS011;16167;48.768;14.984;2023-03-31T05:40:03;8.68;;;3.80;;
29092;SDS011;16167;48.768;14.984;2023-03-31T05:42:33;8.27;;;3.85;;
29092;SDS011;16167;48.768;14.984;2023-03-31T05:45:02;6.32;;;3.42;;
29092;SDS011;16167;48.768;14.984;2023-03-31T05:47:33;6.65;;;4.60;;
29092;SDS011;16167;48.768;14.984;2023-03-31T05:50:03;6.38;;;3.58;;
29092;SDS011;16167;48.768;14.984;2023-03-31T05:52:34;10.40;;;3.92;;
29092;SDS011;16167;48.768;14.984;2023-03-31T05:55:03;9.93;;;3.60;;
29092;SDS011;16167;48.768;14.984;2023-03-31T05:57:31;7.10;;;3.87;;
29092;SDS011;16167;48.768;14.984;2023-03-31T05:59:59;9.38;;;4.47;;
29092;SDS011;16167;48.768;14.984;2023-03-31T06:02:27;8.10;;;4.05;;
29092;SDS011;16167;48.768;14.984;2023-03-31T06:04:55;9.63;;;4.18;;
29092;SDS011;16167;48.768;14.984;2023-03-31T06:07:25;7.25;;;3.92;;
29092;SDS011;16167;48.768;14.984;2023-03-31T06:12:21;9.07;;;4.40;;
29092;SDS011;16167;48.768;14.984;2023-03-31T06:14:49;9.35;;;4.55;;
29092;SDS011;16167;48.768;14.984;2023-03-31T06:17:17;15.23;;;4.60;;
29092;SDS011;16167;48.768;14.984;2023-03-31T06:19:45;6.82;;;3.92;;
29092;SDS011;16167;48.768;14.984;2023-03-31T06:22:13;9.43;;;4.72;;
29092;SDS011;16167;48.768;14.984;2023-03-31T06:24:43;7.32;;;4.20;;
29092;SDS011;16167;48.768;14.984;2023-03-31T06:27:11;9.27;;;4.18;;
29092;SDS011;16167;48.768;14.984;2023-03-31T06:29:39;8.65;;;4.03;;
29092;SDS011;16167;48.768;14.984;2023-03-31T06:32:07;7.82;;;3.58;;
29092;SDS011;16167;48.768;14.984;2023-03-31T06:34:35;9.88;;;4.07;;
29092;SDS011;16167;48.768;14.984;2023-03-31T06:37:04;8.05;;;3.92;;
29092;SDS011;16167;48.768;14.984;2023-03-31T06:39:32;9.43;;;4.32;;
29092;SDS011;16167;48.768;14.984;2023-03-31T06:42:01;5.72;;;3.67;;
29092;SDS011;16167;48.768;14.984;2023-03-31T06:46:57;7.15;;;4.00;;
29092;SDS011;16167;48.768;14.984;2023-03-31T06:49:25;12.02;;;4.30;;
29092;SDS011;16167;48.768;14.984;2023-03-31T06:51:53;9.43;;;4.55;;
29092;SDS011;16167;48.768;14.984;2023-03-31T06:54:21;9.15;;;4.40;;
29092;SDS011;16167;48.768;14.984;2023-03-31T06:56:49;8.43;;;4.55;;
29092;SDS011;16167;48.768;14.984;2023-03-31T06:59:19;8.95;;;4.55;;
29092;SDS011;16167;48.768;14.984;2023-03-31T07:01:47;8.10;;;5.03;;
29092;SDS011;16167;48.768;14.984;2023-03-31T07:04:15;11.10;;;4.60;;
29092;SDS011;16167;48.768;14.984;2023-03-31T07:06:43;10.80;;;4.38;;
29092;SDS011;16167;48.768;14.984;2023-03-31T07:09:12;8.10;;;4.72;;
29092;SDS011;16167;48.768;14.984;2023-03-31T07:11:40;20.23;;;4.38;;
29092;SDS011;16167;48.768;14.984;2023-03-31T07:14:08;14.77;;;4.45;;
29092;SDS011;16167;48.768;14.984;2023-03-31T07:16:37;8.13;;;4.57;;
29092;SDS011;16167;48.768;14.984;2023-03-31T07:21:36;12.50;;;5.43;;
29092;SDS011;16167;48.768;14.984;2023-03-31T07:24:04;11.93;;;4.80;;
29092;SDS011;16167;48.768;14.984;2023-03-31T07:26:32;9.55;;;4.95;;
29092;SDS011;16167;48.768;14.984;2023-03-31T07:29:00;7.25;;;4.80;;
29092;SDS011;16167;48.768;14.984;2023-03-31T07:31:28;7.18;;;4.38;;
29092;SDS011;16167;48.768;14.984;2023-03-31T07:33:59;7.88;;;4.25;;
29092;SDS011;16167;48.768;14.984;2023-03-31T07:36:28;7.63;;;4.80;;
29092;SDS011;16167;48.768;14.984;2023-03-31T07:38:56;9.68;;;4.93;;
29092;SDS011;16167;48.768;14.984;2023-03-31T07:41:24;11.82;;;5.85;;
29092;SDS011;16167;48.768;14.984;2023-03-31T07:43:53;9.70;;;4.65;;
29092;SDS011;16167;48.768;14.984;2023-03-31T07:46:21;11.02;;;5.47;;
29092;SDS011;16167;48.768;14.984;2023-03-31T07:48:51;9.98;;;5.63;;
29092;SDS011;16167;48.768;14.984;2023-03-31T07:51:23;9.98;;;5.30;;
29092;SDS011;16167;48.768;14.984;2023-03-31T07:53:52;13.10;;;7.28;;
29092;SDS011;16167;48.768;14.984;2023-03-31T07:56:21;14.55;;;7.60;;
29092;SDS011;16167;48.768;14.984;2023-03-31T07:58:50;15.98;;;8.15;;
29092;SDS011;16167;48.768;14.984;2023-03-31T08:01:22;15.15;;;9.45;;
29092;SDS011;16167;48.768;14.984;2023-03-31T08:03:51;14.27;;;8.85;;
29092;SDS011;16167;48.768;14.984;2023-03-31T08:08:51;11.93;;;6.43;;
29092;SDS011;16167;48.768;14.984;2023-03-31T08:11:19;9.63;;;6.03;;
29092;SDS011;16167;48.768;14.984;2023-03-31T08:13:48;9.45;;;5.78;;
29092;SDS011;16167;48.768;14.984;2023-03-31T08:16:16;12.85;;;6.75;;
29092;SDS011;16167;48.768;14.984;2023-03-31T08:18:44;13.75;;;7.15;;
29092;SDS011;16167;48.768;14.984;2023-03-31T08:21:12;18.50;;;6.05;;
29092;SDS011;16167;48.768;14.984;2023-03-31T08:23:42;10.00;;;5.55;;
29092;SDS011;16167;48.768;14.984;2023-03-31T08:28:43;11.32;;;5.97;;
29092;SDS011;16167;48.768;14.984;2023-03-31T08:31:11;11.50;;;6.32;;
29092;SDS011;16167;48.768;14.984;2023-03-31T08:33:41;15.00;;;8.20;;
29092;SDS011;16167;48.768;14.984;2023-03-31T08:36:10;27.38;;;15.82;;
29092;SDS011;16167;48.768;14.984;2023-03-31T08:38:39;13.43;;;8.27;;
29092;SDS011;16167;48.768;14.984;2023-03-31T08:41:15;9.98;;;6.50;;
29092;SDS011;16167;48.768;14.984;2023-03-31T08:43:56;10.85;;;5.85;;
29092;SDS011;16167;48.768;14.984;2023-03-31T08:46:26;9.13;;;5.03;;
29092;SDS011;16167;48.768;14.984;2023-03-31T08:48:57;9.48;;;5.55;;
29092;SDS011;16167;48.768;14.984;2023-03-31T08:51:26;8.70;;;4.63;;
29092;SDS011;16167;48.768;14.984;2023-03-31T08:53:59;7.53;;;4.72;;
29092;SDS011;16167;48.768;14.984;2023-03-31T08:56:31;12.25;;;5.45;;
29092;SDS011;16167;48.768;14.984;2023-03-31T08:59:04;6.57;;;4.57;;
29092;SDS011;16167;48.768;14.984;2023-03-31T09:01:36;12.45;;;5.20;;
29092;SDS011;16167;48.768;14.984;2023-03-31T09:04:24;5.82;;;4.55;;
29092;SDS011;16167;48.768;14.984;2023-03-31T09:07:09;10.75;;;5.03;;
29092;SDS011;16167;48.768;14.984;2023-03-31T09:09:47;10.30;;;4.90;;
29092;SDS011;16167;48.768;14.984;2023-03-31T09:12:22;15.30;;;5.13;;
29092;SDS011;16167;48.768;14.984;2023-03-31T09:15:01;8.52;;;4.78;;
29092;SDS011;16167;48.768;14.984;2023-03-31T09:17:33;10.65;;;5.20;;
29092;SDS011;16167;48.768;14.984;2023-03-31T09:20:11;20.42;;;10.75;;
29092;SDS011;16167;48.768;14.984;2023-03-31T09:22:44;11.02;;;5.70;;
29092;SDS011;16167;48.768;14.984;2023-03-31T09:25:17;13.95;;;5.60;;
29092;SDS011;16167;48.768;14.984;2023-03-31T09:27:49;11.00;;;5.55;;
29092;SDS011;16167;48.768;14.984;2023-03-31T09:30:23;13.82;;;6.95;;
29092;SDS011;16167;48.768;14.984;2023-03-31T09:32:57;12.80;;;7.15;;
29092;SDS011;16167;48.768;14.984;2023-03-31T09:35:36;17.30;;;6.70;;
29092;SDS011;16167;48.768;14.984;2023-03-31T09:38:05;10.50;;;6.18;;
29092;SDS011;16167;48.768;14.984;2023-03-31T09:40:34;13.00;;;7.35;;
29092;SDS011;16167;48.768;14.984;2023-03-31T09:45:31;8.80;;;5.25;;
29092;SDS011;16167;48.768;14.984;2023-03-31T09:48:01;12.32;;;7.45;;
29092;SDS011;16167;48.768;14.984;2023-03-31T09:50:32;12.75;;;6.65;;
29092;SDS011;16167;48.768;14.984;2023-03-31T09:53:09;13.13;;;6.53;;
29092;SDS011;16167;48.768;14.984;2023-03-31T09:55:44;13.90;;;6.85;;
29092;SDS011;16167;48.768;14.984;2023-03-31T09:58:17;23.65;;;14.48;;
29092;SDS011;16167;48.768;14.984;2023-03-31T10:00:55;56.17;;;31.03;;
29092;SDS011;16167;48.768;14.984;2023-03-31T10:03:25;53.88;;;30.98;;
29092;SDS011;16167;48.768;14.984;2023-03-31T10:05:55;38.10;;;22.77;;
29092;SDS011;16167;48.768;14.984;2023-03-31T10:11:05;17.55;;;9.90;;
29092;SDS011;16167;48.768;14.984;2023-03-31T10:13:39;13.00;;;8.80;;
29092;SDS011;16167;48.768;14.984;2023-03-31T10:16:12;15.35;;;7.82;;
29092;SDS011;16167;48.768;14.984;2023-03-31T10:18:47;14.85;;;8.43;;
29092;SDS011;16167;48.768;14.984;2023-03-31T10:21:18;19.43;;;10.07;;
29092;SDS011;16167;48.768;14.984;2023-03-31T10:23:49;17.33;;;9.07;;
29092;SDS011;16167;48.768;14.984;2023-03-31T10:28:49;13.45;;;6.78;;
29092;SDS011;16167;48.768;14.984;2023-03-31T10:31:22;12.77;;;6.20;;
29092;SDS011;16167;48.768;14.984;2023-03-31T10:33:52;13.20;;;6.38;;
29092;SDS011;16167;48.768;14.984;2023-03-31T10:36:21;10.20;;;5.90;;
29092;SDS011;16167;48.768;14.984;2023-03-31T10:38:53;12.63;;;5.72;;
29092;SDS011;16167;48.768;14.984;2023-03-31T10:41:23;11.70;;;5.65;;
29092;SDS011;16167;48.768;14.984;2023-03-31T10:43:55;11.15;;;5.57;;
29092;SDS011;16167;48.768;14.984;2023-03-31T10:46:38;12.43;;;5.20;;
29092;SDS011;16167;48.768;14.984;2023-03-31T10:49:24;11.10;;;5.15;;
29092;SDS011;16167;48.768;14.984;2023-03-31T10:51:53;11.98;;;5.88;;
29092;SDS011;16167;48.768;14.984;2023-03-31T10:54:22;8.07;;;5.55;;
29092;SDS011;16167;48.768;14.984;2023-03-31T10:56:52;13.90;;;6.78;;
29092;SDS011;16167;48.768;14.984;2023-03-31T10:59:26;13.52;;;6.18;;
29092;SDS011;16167;48.768;14.984;2023-03-31T11:02:08;10.85;;;5.35;;
29092;SDS011;16167;48.768;14.984;2023-03-31T11:04:48;10.45;;;5.45;;
29092;SDS011;16167;48.768;14.984;2023-03-31T11:07:34;12.93;;;5.47;;
29092;SDS011;16167;48.768;14.984;2023-03-31T11:10:20;11.10;;;5.82;;
29092;SDS011;16167;48.768;14.984;2023-03-31T11:13:12;13.85;;;5.07;;
29092;SDS011;16167;48.768;14.984;2023-03-31T11:15:47;7.43;;;4.47;;
29092;SDS011;16167;48.768;14.984;2023-03-31T11:18:28;12.60;;;4.82;;
29092;SDS011;16167;48.768;14.984;2023-03-31T11:21:06;9.15;;;5.20;;
29092;SDS011;16167;48.768;14.984;2023-03-31T11:23:42;10.53;;;5.10;;
29092;SDS011;16167;48.768;14.984;2023-03-31T11:26:16;13.38;;;4.68;;
29092;SDS011;16167;48.768;14.984;2023-03-31T11:28:59;9.23;;;5.20;;
29092;SDS011;16167;48.768;14.984;2023-03-31T11:31:37;16.85;;;6.80;;
29092;SDS011;16167;48.768;14.984;2023-03-31T11:34:16;12.07;;;5.85;;
29092;SDS011;16167;48.768;14.984;2023-03-31T11:37:10;11.65;;;6.05;;
29092;SDS011;16167;48.768;14.984;2023-03-31T11:40:00;17.35;;;6.80;;
29092;SDS011;16167;48.768;14.984;2023-03-31T11:42:41;19.05;;;7.20;;
29092;SDS011;16167;48.768;14.984;2023-03-31T11:45:17;10.40;;;4.10;;
29092;SDS011;16167;48.768;14.984;2023-03-31T11:47:48;15.43;;;6.75;;
29092;SDS011;16167;48.768;14.984;2023-03-31T11:50:21;8.50;;;4.75;;
29092;SDS011;16167;48.768;14.984;2023-03-31T11:52:55;8.43;;;3.47;;
29092;SDS011;16167;48.768;14.984;2023-03-31T11:55:25;9.00;;;5.07;;
29092;SDS011;16167;48.768;14.984;2023-03-31T11:57:58;11.82;;;5.00;;
29092;SDS011;16167;48.768;14.984;2023-03-31T12:00:32;8.73;;;4.13;;
29092;SDS011;16167;48.768;14.984;2023-03-31T12:03:06;8.82;;;4.15;;
29092;SDS011;16167;48.768;14.984;2023-03-31T12:05:40;6.47;;;3.88;;
29092;SDS011;16167;48.768;14.984;2023-03-31T12:08:12;10.98;;;6.60;;
29092;SDS011;16167;48.768;14.984;2023-03-31T12:10:43;9.38;;;5.10;;
29092;SDS011;16167;48.768;14.984;2023-03-31T12:13:32;17.02;;;9.02;;
29092;SDS011;16167;48.768;14.984;2023-03-31T12:16:10;12.30;;;6.35;;
29092;SDS011;16167;48.768;14.984;2023-03-31T12:18:41;9.00;;;3.60;;
29092;SDS011;16167;48.768;14.984;2023-03-31T12:21:19;7.63;;;3.78;;
29092;SDS011;16167;48.768;14.984;2023-03-31T12:23:50;7.10;;;3.42;;
29092;SDS011;16167;48.768;14.984;2023-03-31T12:26:22;7.57;;;3.50;;
29092;SDS011;16167;48.768;14.984;2023-03-31T12:29:06;9.43;;;4.38;;
29092;SDS011;16167;48.768;14.984;2023-03-31T12:31:45;7.05;;;3.85;;
29092;SDS011;16167;48.768;14.984;2023-03-31T12:34:15;7.32;;;3.30;;
29092;SDS011;16167;48.768;14.984;2023-03-31T12:36:50;8.07;;;3.72;;
29092;SDS011;16167;48.768;14.984;2023-03-31T12:39:34;6.90;;;3.35;;
29092;SDS011;16167;48.768;14.984;2023-03-31T12:42:22;5.95;;;3.15;;
29092;SDS011;16167;48.768;14.984;2023-03-31T12:45:23;6.05;;;3.08;;
29092;SDS011;16167;48.768;14.984;2023-03-31T12:48:01;4.88;;;2.42;;
29092;SDS011;16167;48.768;14.984;2023-03-31T12:50:40;7.13;;;5.63;;
29092;SDS011;16167;48.768;14.984;2023-03-31T12:53:19;4.53;;;2.67;;
29092;SDS011;16167;48.768;14.984;2023-03-31T12:55:57;4.13;;;2.95;;
29092;SDS011;16167;48.768;14.984;2023-03-31T13:01:14;4.32;;;2.53;;
29092;SDS011;16167;48.768;14.984;2023-03-31T13:03:49;5.00;;;3.13;;
29092;SDS011;16167;48.768;14.984;2023-03-31T13:12:12;5.50;;;3.30;;
29092;SDS011;16167;48.768;14.984;2023-03-31T13:14:43;5.40;;;2.70;;
29092;SDS011;16167;48.768;14.984;2023-03-31T13:17:18;6.90;;;2.92;;
29092;SDS011;16167;48.768;14.984;2023-03-31T13:19:50;4.05;;;2.58;;
29092;SDS011;16167;48.768;14.984;2023-03-31T13:22:30;7.03;;;2.83;;
29092;SDS011;16167;48.768;14.984;2023-03-31T13:28:12;6.18;;;2.70;;
29092;SDS011;16167;48.768;14.984;2023-03-31T13:30:47;5.35;;;2.92;;
29092;SDS011;16167;48.768;14.984;2023-03-31T13:33:25;3.22;;;2.65;;
29092;SDS011;16167;48.768;14.984;2023-03-31T13:36:12;7.82;;;2.83;;
29092;SDS011;16167;48.768;14.984;2023-03-31T13:39:00;4.30;;;2.28;;
29092;SDS011;16167;48.768;14.984;2023-03-31T13:41:42;5.65;;;2.58;;
29092;SDS011;16167;48.768;14.984;2023-03-31T13:44:25;7.05;;;2.97;;
29092;SDS011;16167;48.768;14.984;2023-03-31T13:47:14;6.05;;;3.17;;
29092;SDS011;16167;48.768;14.984;2023-03-31T13:49:54;4.00;;;3.00;;
29092;SDS011;16167;48.768;14.984;2023-03-31T13:52:41;6.03;;;3.05;;
29092;SDS011;16167;48.768;14.984;2023-03-31T13:58:18;5.65;;;3.10;;
29092;SDS011;16167;48.768;14.984;2023-03-31T14:04:05;6.18;;;3.00;;
29092;SDS011;16167;48.768;14.984;2023-03-31T14:06:47;7.15;;;3.70;;
29092;SDS011;16167;48.768;14.984;2023-03-31T14:09:22;6.65;;;3.33;;
29092;SDS011;16167;48.768;14.984;2023-03-31T14:11:57;10.32;;;3.47;;
29092;SDS011;16167;48.768;14.984;2023-03-31T14:14:25;5.40;;;3.33;;
29092;SDS011;16167;48.768;14.984;2023-03-31T14:16:55;3.80;;;3.08;;
29092;SDS011;16167;48.768;14.984;2023-03-31T14:19:34;7.15;;;3.88;;
29092;SDS011;16167;48.768;14.984;2023-03-31T14:22:24;6.20;;;3.70;;
29092;SDS011;16167;48.768;14.984;2023-03-31T14:25:08;8.25;;;3.08;;
29092;SDS011;16167;48.768;14.984;2023-03-31T14:27:47;5.97;;;3.05;;
29092;SDS011;16167;48.768;14.984;2023-03-31T14:30:28;3.08;;;2.33;;
29092;SDS011;16167;48.768;14.984;2023-03-31T14:33:08;3.17;;;2.22;;
29092;SDS011;16167;48.768;14.984;2023-03-31T14:35:45;5.63;;;2.35;;
29092;SDS011;16167;48.768;14.984;2023-03-31T14:38:19;4.03;;;2.20;;
29092;SDS011;16167;48.768;14.984;2023-03-31T14:40:50;4.10;;;2.15;;
29092;SDS011;16167;48.768;14.984;2023-03-31T14:43:22;3.25;;;1.80;;
29092;SDS011;16167;48.768;14.984;2023-03-31T14:45:56;4.88;;;2.38;;
29092;SDS011;16167;48.768;14.984;2023-03-31T14:48:26;6.72;;;2.20;;
29092;SDS011;16167;48.768;14.984;2023-03-31T14:50:55;5.38;;;2.00;;
29092;SDS011;16167;48.768;14.984;2023-03-31T14:53:25;5.30;;;2.38;;
29092;SDS011;16167;48.768;14.984;2023-03-31T14:55:57;5.00;;;2.13;;
29092;SDS011;16167;48.768;14.984;2023-03-31T14:58:29;10.07;;;4.38;;
29092;SDS011;16167;48.768;14.984;2023-03-31T15:01:01;3.13;;;1.92;;
29092;SDS011;16167;48.768;14.984;2023-03-31T15:03:32;6.97;;;3.53;;
29092;SDS011;16167;48.768;14.984;2023-03-31T15:06:01;5.30;;;2.10;;
29092;SDS011;16167;48.768;14.984;2023-03-31T15:11:01;3.63;;;2.28;;
29092;SDS011;16167;48.768;14.984;2023-03-31T15:13:39;3.10;;;1.98;;
29092;SDS011;16167;48.768;14.984;2023-03-31T15:16:30;2.92;;;2.50;;
29092;SDS011;16167;48.768;14.984;2023-03-31T15:19:03;4.97;;;2.40;;
29092;SDS011;16167;48.768;14.984;2023-03-31T15:21:37;3.58;;;2.15;;
29092;SDS011;16167;48.768;14.984;2023-03-31T15:24:05;5.90;;;3.05;;
29092;SDS011;16167;48.768;14.984;2023-03-31T15:26:36;3.73;;;2.70;;
29092;SDS011;16167;48.768;14.984;2023-03-31T15:29:08;5.88;;;2.92;;
29092;SDS011;16167;48.768;14.984;2023-03-31T15:31:40;6.20;;;2.65;;
29092;SDS011;16167;48.768;14.984;2023-03-31T15:34:16;3.47;;;2.65;;
29092;SDS011;16167;48.768;14.984;2023-03-31T15:36:48;4.10;;;2.53;;
29092;SDS011;16167;48.768;14.984;2023-03-31T15:39:17;6.13;;;2.30;;
29092;SDS011;16167;48.768;14.984;2023-03-31T15:41:47;3.45;;;2.35;;
29092;SDS011;16167;48.768;14.984;2023-03-31T15:44:29;6.85;;;2.45;;
29092;SDS011;16167;48.768;14.984;2023-03-31T15:47:11;5.47;;;3.28;;
29092;SDS011;16167;48.768;14.984;2023-03-31T15:49:46;5.43;;;3.17;;
29092;SDS011;16167;48.768;14.984;2023-03-31T15:57:53;4.35;;;3.22;;
29092;SDS011;16167;48.768;14.984;2023-03-31T16:03:13;4.18;;;2.67;;
29092;SDS011;16167;48.768;14.984;2023-03-31T16:05:48;7.63;;;2.58;;
29092;SDS011;16167;48.768;14.984;2023-03-31T16:08:22;4.20;;;2.28;;
29092;SDS011;16167;48.768;14.984;2023-03-31T16:10:54;3.72;;;2.58;;
29092;SDS011;16167;48.768;14.984;2023-03-31T16:13:26;5.03;;;2.50;;